Time;durP1;ratioP1;P1;durP2;ratioP2;P2;SDS_P1;SDS_P2;PMS_P1;PMS_P2;Temp;Humidity;BMP_temperature;BMP_pressure;BME280_temperature;BME280_humidity;BME280_pressure;Samples;Min_cycle;Max_cycle;Signal;HPM_P1;HPM_P2
2024/01/10 00:01:17;;;;;;;178.97;70.40;;;;;;;-7.58;54.07;102101.22;5031621;27;96908;-74
2024/01/10 00:03:43;;;;;;;182.97;69.27;;;;;;;-7.65;54.35;102092.28;5012608;27;101207;-74
2024/01/10 00:06:08;;;;;;;178.30;71.50;;;;;;;-7.61;54.62;102104.44;5007519;27;97881;-75
2024/01/10 00:08:34;;;;;;;169.77;68.50;;;;;;;-7.52;54.16;102099.97;5049181;27;96850;-74
2024/01/10 00:10:59;;;;;;;179.43;67.67;;;;;;;-7.49;53.94;102090.75;5030926;27;97468;-74
2024/01/10 00:13:26;;;;;;;179.90;72.07;;;;;;;-7.71;54.52;102085.84;5013118;27;101613;-77
2024/01/10 00:15:51;;;;;;;172.60;69.30;;;;;;;-7.58;54.24;102098.66;5017414;27;98027;-74
2024/01/10 00:18:17;;;;;;;168.03;70.50;;;;;;;-7.74;54.08;102078.88;5010963;28;96893;-74
2024/01/10 00:20:43;;;;;;;168.83;69.43;;;;;;;-7.58;54.12;102091.91;5010324;28;96973;-74
2024/01/10 00:23:08;;;;;;;178.50;73.23;;;;;;;-7.84;54.14;102086.69;5010935;28;97680;-76
2024/01/10 00:25:34;;;;;;;172.53;68.80;;;;;;;-7.66;54.12;102085.38;5029915;27;97882;-74
2024/01/10 00:27:59;;;;;;;188.23;71.70;;;;;;;-7.94;53.81;102044.41;5031466;27;97123;-74
2024/01/10 00:30:25;;;;;;;180.20;70.00;;;;;;;-7.64;53.87;102095.72;5048927;27;97215;-77
2024/01/10 00:32:51;;;;;;;182.80;71.40;;;;;;;-7.76;53.95;102083.00;5006367;27;101162;-74
2024/01/10 00:35:16;;;;;;;194.63;76.60;;;;;;;-7.78;54.03;102075.25;4996227;27;101494;-74
2024/01/10 00:37:42;;;;;;;186.00;69.07;;;;;;;-7.60;54.47;102095.13;5010378;28;96809;-74
2024/01/10 00:40:09;;;;;;;178.03;73.17;;;;;;;-7.62;53.95;102091.56;4996298;27;97191;-74
2024/01/10 00:42:34;;;;;;;191.77;75.67;;;;;;;-7.64;54.28;102088.94;5014013;27;101660;-74
2024/01/10 00:45:00;;;;;;;198.80;80.73;;;;;;;-7.77;54.05;102099.06;5013313;27;101348;-77
2024/01/10 00:47:25;;;;;;;198.57;75.43;;;;;;;-7.76;54.39;102099.19;5013413;27;97149;-78
2024/01/10 00:49:51;;;;;;;206.17;79.10;;;;;;;-7.87;54.34;102089.91;5029319;27;97014;-74
2024/01/10 00:52:16;;;;;;;193.57;75.93;;;;;;;-7.68;54.11;102075.84;5013690;27;101518;-74
2024/01/10 00:54:43;;;;;;;198.87;79.20;;;;;;;-7.77;54.76;102074.44;5029810;27;97578;-74
2024/01/10 00:57:09;;;;;;;202.60;79.67;;;;;;;-7.84;54.10;102068.84;5013768;27;96763;-74
2024/01/10 00:59:35;;;;;;;204.83;78.47;;;;;;;-7.87;54.37;102077.16;5013189;27;97436;-74
2024/01/10 01:02:00;;;;;;;200.63;77.83;;;;;;;-7.91;54.82;102082.84;5013475;27;97726;-74
2024/01/10 01:04:26;;;;;;;186.33;73.40;;;;;;;-7.94;54.98;102067.34;5029944;27;97877;-75
2024/01/10 01:06:51;;;;;;;209.47;80.37;;;;;;;-7.90;54.67;102076.97;5025643;27;97101;-74
2024/01/10 01:09:17;;;;;;;195.63;81.07;;;;;;;-8.33;54.59;102043.41;5013496;27;97079;-74
2024/01/10 01:11:43;;;;;;;197.73;75.83;;;;;;;-7.97;55.04;102084.94;5012838;27;97436;-74
2024/01/10 01:14:08;;;;;;;201.60;78.10;;;;;;;-7.90;54.89;102097.34;5013101;27;100999;-75
2024/01/10 01:16:34;;;;;;;197.50;76.17;;;;;;;-7.94;54.71;102094.47;4999844;27;96935;-74
2024/01/10 01:18:59;;;;;;;201.83;74.70;;;;;;;-8.23;55.13;102047.47;5016712;27;96774;-74
2024/01/10 01:21:25;;;;;;;201.23;82.30;;;;;;;-8.28;55.63;102076.88;5033856;27;97476;-76
2024/01/10 01:23:50;;;;;;;193.60;78.67;;;;;;;-8.04;54.92;102095.53;4999506;27;101157;-74
2024/01/10 01:26:16;;;;;;;209.27;79.10;;;;;;;-8.24;55.78;102063.56;5016336;27;96878;-75
2024/01/10 01:28:42;;;;;;;220.97;86.70;;;;;;;-8.32;54.80;102059.56;5033090;27;97428;-74
2024/01/10 01:31:07;;;;;;;218.83;84.73;;;;;;;-8.09;55.49;102073.91;5033268;27;97570;-74
2024/01/10 01:33:33;;;;;;;202.43;83.47;;;;;;;-8.09;55.48;102090.09;5016414;27;98415;-74
2024/01/10 01:35:58;;;;;;;210.87;81.70;;;;;;;-8.02;55.16;102094.84;4999604;27;97062;-74
2024/01/10 01:38:24;;;;;;;209.03;82.67;;;;;;;-8.06;55.37;102090.31;5016416;27;96893;-74
2024/01/10 01:40:49;;;;;;;209.87;84.07;;;;;;;-8.16;55.53;102081.94;5015950;27;97620;-74
2024/01/10 01:43:20;;;;;;;215.97;82.90;;;;;;;-8.18;55.74;102053.78;5016951;27;101706;-74
2024/01/10 01:45:46;;;;;;;216.47;83.13;;;;;;;-8.23;54.67;102040.75;5032954;27;96740;-74
2024/01/10 01:48:11;;;;;;;216.30;83.57;;;;;;;-8.07;54.73;102067.28;5016375;27;96957;-75
2024/01/10 01:50:37;;;;;;;216.17;85.63;;;;;;;-8.05;54.78;102065.72;5015249;27;101101;-74
2024/01/10 01:53:03;;;;;;;229.43;83.60;;;;;;;-7.95;54.36;102073.19;4999441;27;101351;-74
2024/01/10 01:55:29;;;;;;;213.87;81.23;;;;;;;-7.97;54.23;102057.81;5015444;27;97154;-74
2024/01/10 01:57:55;;;;;;;199.13;78.37;;;;;;;-8.11;55.31;102042.38;5016226;27;96854;-74
2024/01/10 02:00:20;;;;;;;199.80;79.03;;;;;;;-8.11;55.04;102034.72;5051178;27;97347;-74
2024/01/10 02:02:48;;;;;;;196.07;76.33;;;;;;;-8.04;54.75;102062.38;5032967;27;97810;-74
2024/01/10 02:05:15;;;;;;;196.90;79.67;;;;;;;-8.03;55.20;102067.59;5029399;27;97232;-74
2024/01/10 02:07:41;;;;;;;202.20;80.57;;;;;;;-7.95;54.62;102063.00;5015415;27;97249;-75
2024/01/10 02:10:07;;;;;;;215.20;80.90;;;;;;;-8.00;54.97;102067.81;5028750;27;100360;-74
2024/01/10 02:12:32;;;;;;;212.40;83.97;;;;;;;-8.16;55.67;102056.44;5031566;27;98080;-74
2024/01/10 02:14:59;;;;;;;193.20;82.37;;;;;;;-8.40;55.54;102060.75;5032238;27;97012;-74
2024/01/10 02:17:25;;;;;;;199.50;82.10;;;;;;;-8.61;57.24;102067.75;5050650;27;96863;-74
2024/01/10 02:20:10;;;;;;;198.67;78.97;;;;;;;-8.59;56.61;102076.41;5015742;27;101898;-75
2024/01/10 02:22:36;;;;;;;188.23;75.07;;;;;;;-8.38;56.41;102069.38;5010524;28;101530;-75
2024/01/10 02:25:03;;;;;;;184.07;74.93;;;;;;;-8.47;56.93;102026.31;5027268;27;96727;-75
2024/01/10 02:27:29;;;;;;;213.63;81.43;;;;;;;-8.41;56.49;102062.41;5028229;27;96850;-74
2024/01/10 02:29:55;;;;;;;195.70;76.90;;;;;;;-8.49;55.93;102016.03;5008562;27;101495;-74
2024/01/10 02:32:20;;;;;;;193.87;76.43;;;;;;;-8.25;56.69;102057.56;5032819;27;97869;-73
2024/01/10 02:34:46;;;;;;;186.07;74.00;;;;;;;-8.36;56.68;102049.97;5050672;27;96947;-74
2024/01/10 02:37:11;;;;;;;190.17;75.43;;;;;;;-8.28;57.03;102056.47;5015940;27;96928;-74
2024/01/10 02:39:36;;;;;;;181.87;73.07;;;;;;;-8.48;56.41;102030.53;5049786;27;97470;-73
2024/01/10 02:42:02;;;;;;;179.63;72.83;;;;;;;-8.24;56.38;102051.69;5011486;27;101726;-75
2024/01/10 02:44:28;;;;;;;185.77;76.37;;;;;;;-8.38;56.85;102043.91;5002685;27;97096;-73
2024/01/10 02:46:53;;;;;;;184.97;74.13;;;;;;;-8.36;57.14;102034.69;5015331;27;96838;-74
2024/01/10 02:49:19;;;;;;;193.43;78.43;;;;;;;-8.46;56.83;102041.72;5050365;27;97627;-74
2024/01/10 02:51:45;;;;;;;202.93;76.40;;;;;;;-8.27;56.34;102055.69;5030031;27;97291;-74
2024/01/10 02:54:10;;;;;;;202.10;76.93;;;;;;;-8.60;56.59;102021.16;5011085;28;97117;-74
2024/01/10 02:56:36;;;;;;;184.73;78.37;;;;;;;-8.50;56.61;102047.34;5009384;28;96955;-74
2024/01/10 02:59:01;;;;;;;199.17;77.80;;;;;;;-8.51;56.91;102049.81;5024160;28;97433;-75
2024/01/10 03:01:27;;;;;;;194.93;76.77;;;;;;;-8.78;57.45;102021.63;5016493;28;98059;-74
2024/01/10 03:03:52;;;;;;;178.30;76.73;;;;;;;-8.84;57.71;102049.22;5010940;28;98067;-74
2024/01/10 03:06:18;;;;;;;180.20;76.37;;;;;;;-8.94;57.69;102017.09;5008529;28;97066;-74
2024/01/10 03:08:43;;;;;;;183.90;76.83;;;;;;;-8.66;57.05;102042.88;5022873;28;98004;-74
2024/01/10 03:11:09;;;;;;;199.13;80.63;;;;;;;-8.73;56.76;102037.22;4992380;28;100977;-74
2024/01/10 03:13:34;;;;;;;195.93;77.63;;;;;;;-8.72;56.96;102039.88;5003416;28;97036;-75
2024/01/10 03:16:00;;;;;;;183.67;75.97;;;;;;;-8.67;56.74;102036.00;5027321;28;96861;-74
2024/01/10 03:18:25;;;;;;;195.07;77.57;;;;;;;-8.90;56.71;101993.66;5011076;28;100910;-74
2024/01/10 03:20:51;;;;;;;191.93;77.13;;;;;;;-8.71;57.10;102045.84;5028695;28;97432;-74
2024/01/10 03:23:17;;;;;;;202.43;77.57;;;;;;;-8.70;57.33;102038.31;4994881;28;96803;-74
2024/01/10 03:25:42;;;;;;;190.40;76.57;;;;;;;-8.54;56.24;102058.13;5007782;28;97260;-74
2024/01/10 03:28:08;;;;;;;195.00;78.33;;;;;;;-8.55;56.27;102053.81;5006037;28;100794;-75
2024/01/10 03:30:34;;;;;;;199.07;77.73;;;;;;;-8.58;56.48;102047.59;5027862;28;101723;-74
2024/01/10 03:32:59;;;;;;;191.10;76.93;;;;;;;-8.67;56.14;102048.75;5004344;28;96806;-74
2024/01/10 03:35:25;;;;;;;188.63;74.83;;;;;;;-8.66;56.00;102059.81;4994006;28;96986;-74
2024/01/10 03:37:50;;;;;;;182.33;80.20;;;;;;;-8.75;56.83;102054.06;5011237;28;99014;-74
2024/01/10 03:40:16;;;;;;;186.00;76.37;;;;;;;-8.79;56.77;102054.59;5016706;28;101341;-74
2024/01/10 03:42:41;;;;;;;190.20;75.17;;;;;;;-8.77;56.43;102063.25;5011347;28;96777;-75
2024/01/10 03:45:07;;;;;;;182.73;74.80;;;;;;;-8.75;56.19;102044.75;5027915;28;97263;-74
2024/01/10 03:47:32;;;;;;;193.47;75.53;;;;;;;-8.64;56.05;102054.81;5011337;28;100893;-75
2024/01/10 03:49:58;;;;;;;196.70;75.17;;;;;;;-8.65;56.35;102046.28;5027301;28;101040;-74
2024/01/10 03:52:23;;;;;;;192.53;77.03;;;;;;;-8.66;55.54;102047.97;5010554;28;98947;-74
2024/01/10 03:54:48;;;;;;;188.83;75.13;;;;;;;-8.78;56.60;102036.91;5010544;28;97340;-74
2024/01/10 03:57:14;;;;;;;196.20;75.30;;;;;;;-8.91;56.39;102042.75;4993980;28;101401;-74
2024/01/10 03:59:39;;;;;;;194.33;79.17;;;;;;;-9.23;56.43;102001.41;5010243;28;101123;-74
2024/01/10 04:02:05;;;;;;;206.80;79.07;;;;;;;-8.95;56.57;102047.53;5011762;28;96795;-74
2024/01/10 04:04:30;;;;;;;194.37;74.57;;;;;;;-8.94;55.76;102031.50;5028790;28;98000;-74
2024/01/10 04:06:56;;;;;;;192.27;78.57;;;;;;;-9.19;55.90;101991.56;5027526;28;98075;-74
2024/01/10 04:09:21;;;;;;;215.53;83.90;;;;;;;-9.11;56.87;101989.56;5027165;28;102273;-76
2024/01/10 04:11:47;;;;;;;199.30;78.17;;;;;;;-8.87;56.72;102023.53;5027238;28;97067;-74
2024/01/10 04:14:12;;;;;;;207.93;82.53;;;;;;;-8.85;56.35;102014.31;4996754;28;96762;-74
2024/01/10 04:16:38;;;;;;;209.40;80.43;;;;;;;-8.91;56.52;102026.63;5010338;28;101296;-75
2024/01/10 04:19:03;;;;;;;196.50;82.90;;;;;;;-8.82;56.56;102018.75;5010186;28;101518;-74
2024/01/10 04:21:29;;;;;;;191.60;77.93;;;;;;;-9.03;55.37;101979.94;4990560;28;96915;-74
2024/01/10 04:23:54;;;;;;;217.20;84.27;;;;;;;-8.85;56.07;102013.44;5010321;28;96864;-74
2024/01/10 04:26:20;;;;;;;213.77;83.67;;;;;;;-8.82;56.20;102006.91;5010092;28;100958;-72
2024/01/10 04:28:45;;;;;;;202.83;80.67;;;;;;;-8.78;55.66;102015.66;5010571;28;98155;-73
2024/01/10 04:31:11;;;;;;;211.83;81.20;;;;;;;-8.92;55.91;102004.50;5010749;28;97329;-72
2024/01/10 04:33:36;;;;;;;210.60;82.27;;;;;;;-8.88;55.85;102012.44;5010691;28;96926;-73
2024/01/10 04:36:02;;;;;;;208.13;83.47;;;;;;;-8.75;55.71;102009.13;5027205;28;101264;-73
2024/01/10 04:38:27;;;;;;;215.90;82.07;;;;;;;-8.72;55.12;102008.44;5010405;28;98183;-73
2024/01/10 04:40:53;;;;;;;199.07;78.93;;;;;;;-8.85;56.05;101996.50;5026418;28;97343;-73
2024/01/10 04:43:19;;;;;;;200.97;79.43;;;;;;;-8.67;55.28;102009.63;5010655;28;97163;-73
2024/01/10 04:45:44;;;;;;;199.40;78.57;;;;;;;-8.83;55.94;102005.13;5028253;27;98053;-72
2024/01/10 04:48:10;;;;;;;201.33;83.90;;;;;;;-8.98;55.04;101959.13;5010304;28;101241;-73
2024/01/10 04:50:35;;;;;;;203.47;81.03;;;;;;;-8.69;55.63;102006.13;5012852;28;96853;-72
2024/01/10 04:53:00;;;;;;;205.07;79.27;;;;;;;-8.80;55.70;102020.63;4999789;28;96928;-72
2024/01/10 04:55:27;;;;;;;188.77;78.90;;;;;;;-8.93;55.73;102005.25;5013050;28;97413;-72
2024/01/10 04:57:53;;;;;;;199.23;78.23;;;;;;;-8.86;55.76;102019.31;5011562;28;98112;-72
2024/01/10 05:00:18;;;;;;;199.33;81.13;;;;;;;-8.99;56.23;102020.97;5030382;28;97399;-72
2024/01/10 05:02:44;;;;;;;208.67;78.63;;;;;;;-9.04;56.74;102014.69;4987167;28;96903;-72
2024/01/10 05:05:09;;;;;;;212.47;81.10;;;;;;;-9.09;55.64;101985.47;4995666;28;100350;-72
2024/01/10 05:07:35;;;;;;;204.13;79.83;;;;;;;-8.85;55.37;102011.78;5030890;28;97398;-72
2024/01/10 05:10:00;;;;;;;212.13;81.93;;;;;;;-9.16;56.57;101976.53;5012602;28;97008;-73
2024/01/10 05:12:26;;;;;;;214.93;85.97;;;;;;;-9.05;55.60;102014.56;5013572;28;97034;-72
2024/01/10 05:14:52;;;;;;;202.67;81.03;;;;;;;-9.02;55.59;102008.03;4995877;28;101030;-72
2024/01/10 05:17:17;;;;;;;197.50;78.90;;;;;;;-9.38;55.76;102007.13;5013678;28;101087;-73
2024/01/10 05:19:45;;;;;;;202.33;80.83;;;;;;;-9.38;56.77;102012.22;5030241;28;97341;-73
2024/01/10 05:22:10;;;;;;;201.53;81.80;;;;;;;-9.33;57.11;101994.78;4993699;28;97019;-73
2024/01/10 05:24:36;;;;;;;199.07;77.27;;;;;;;-9.24;56.25;102010.69;5021748;28;101605;-73
2024/01/10 05:27:01;;;;;;;211.10;82.60;;;;;;;-9.18;55.83;102023.84;5009359;28;100927;-72
2024/01/10 05:29:27;;;;;;;215.43;83.60;;;;;;;-9.29;56.24;102016.22;5000145;28;97177;-74
2024/01/10 05:31:53;;;;;;;208.03;82.10;;;;;;;-9.31;56.53;102038.09;5013087;28;97938;-73
2024/01/10 05:34:18;;;;;;;194.50;78.53;;;;;;;-9.68;56.58;101982.91;5022625;28;98089;-73
2024/01/10 05:36:44;;;;;;;205.20;80.43;;;;;;;-9.43;56.44;102030.47;5029587;28;98199;-72
2024/01/10 05:39:09;;;;;;;191.47;77.70;;;;;;;-9.49;57.24;101996.97;5031068;27;96798;-72
2024/01/10 05:41:35;;;;;;;204.93;79.40;;;;;;;-9.14;56.26;102035.13;5029816;28;96892;-72
2024/01/10 05:44:00;;;;;;;210.03;81.43;;;;;;;-9.24;56.36;102018.31;4985068;28;101939;-73
2024/01/10 05:46:28;;;;;;;215.57;79.10;;;;;;;-9.16;56.36;102017.22;5019898;28;101481;-72
2024/01/10 05:48:53;;;;;;;189.23;75.57;;;;;;;-9.10;56.14;102021.88;5020752;27;97886;-73
2024/01/10 05:51:19;;;;;;;207.70;80.13;;;;;;;-9.54;55.89;101970.31;5021959;28;96867;-72
2024/01/10 05:53:44;;;;;;;189.03;76.37;;;;;;;-9.23;56.16;102026.84;5011409;28;101582;-72
2024/01/10 05:56:10;;;;;;;204.13;79.83;;;;;;;-9.34;56.41;102018.41;5012355;28;101117;-73
2024/01/10 05:58:35;;;;;;;202.33;77.87;;;;;;;-9.37;56.63;102025.81;5012815;28;96761;-72
2024/01/10 06:01:02;;;;;;;184.77;77.93;;;;;;;-9.56;57.40;102026.16;5030224;27;97587;-72
2024/01/10 06:03:28;;;;;;;210.90;80.07;;;;;;;-9.53;57.30;102021.28;5012433;28;101217;-72
2024/01/10 06:05:53;;;;;;;193.47;77.27;;;;;;;-9.32;56.60;102032.13;4995478;28;99993;-72
2024/01/10 06:08:20;;;;;;;200.53;81.10;;;;;;;-9.23;56.37;102027.72;5015261;28;96921;-72
2024/01/10 06:10:45;;;;;;;202.40;81.40;;;;;;;-9.41;56.45;102023.84;5026430;28;96874;-72
2024/01/10 06:13:11;;;;;;;194.37;76.07;;;;;;;-9.45;56.50;102021.81;5009041;28;101198;-73
2024/01/10 06:15:36;;;;;;;202.73;80.73;;;;;;;-9.49;56.58;102030.00;5026644;28;97425;-73
2024/01/10 06:18:03;;;;;;;213.43;85.37;;;;;;;-9.55;56.29;102021.94;4995522;28;97508;-72
2024/01/10 06:20:28;;;;;;;196.83;79.50;;;;;;;-9.29;56.79;102026.41;5028580;28;96899;-73
2024/01/10 06:22:54;;;;;;;211.03;84.27;;;;;;;-9.55;56.06;101968.53;5011957;28;99925;-73
2024/01/10 06:25:19;;;;;;;186.50;74.13;;;;;;;-9.30;55.84;102022.97;5028398;28;97507;-73
2024/01/10 06:27:45;;;;;;;213.73;81.17;;;;;;;-9.41;56.17;102023.84;5008908;27;96770;-73
2024/01/10 06:30:11;;;;;;;207.63;79.93;;;;;;;-9.46;55.82;102031.13;5005520;28;96913;-72
2024/01/10 06:32:36;;;;;;;190.90;80.30;;;;;;;-9.84;56.88;101993.56;5011360;28;97880;-73
2024/01/10 06:35:02;;;;;;;221.10;81.50;;;;;;;-9.77;56.35;102001.66;5009201;28;97528;-72
2024/01/10 06:37:28;;;;;;;201.53;82.53;;;;;;;-9.83;56.52;102030.03;5021419;27;96973;-73
2024/01/10 06:39:53;;;;;;;222.50;82.17;;;;;;;-9.94;57.69;102021.63;5024587;27;97561;-77
2024/01/10 06:42:19;;;;;;;201.27;81.10;;;;;;;-10.31;58.47;101973.13;5001815;27;101623;-73
2024/01/10 06:44:45;;;;;;;206.70;80.67;;;;;;;-10.06;57.99;102024.13;4982110;28;102964;-72
2024/01/10 06:47:11;;;;;;;203.90;84.33;;;;;;;-10.21;57.77;102002.63;5009507;28;98090;-72
2024/01/10 06:49:37;;;;;;;202.53;80.67;;;;;;;-10.22;58.50;102026.25;5009369;28;97006;-73
2024/01/10 06:52:02;;;;;;;202.20;85.90;;;;;;;-10.37;57.92;101995.53;4993042;28;101264;-73
2024/01/10 06:54:28;;;;;;;189.70;76.60;;;;;;;-10.29;58.42;102001.22;5029004;27;97657;-73
2024/01/10 06:56:53;;;;;;;210.37;82.90;;;;;;;-10.05;58.48;102003.03;4997359;27;97222;-73
2024/01/10 06:59:19;;;;;;;206.57;77.93;;;;;;;-9.98;57.59;101998.41;5024940;27;97242;-73
2024/01/10 07:01:45;;;;;;;199.20;83.27;;;;;;;-10.02;58.41;102010.88;5015423;28;97845;-73
2024/01/10 07:04:10;;;;;;;208.33;79.73;;;;;;;-9.95;57.94;101996.97;5011452;27;101097;-73
2024/01/10 07:06:36;;;;;;;195.40;79.20;;;;;;;-10.02;57.84;102005.78;5011355;27;96972;-73
2024/01/10 07:09:02;;;;;;;195.77;77.97;;;;;;;-10.06;57.37;101995.31;5018963;27;97091;-73
2024/01/10 07:11:28;;;;;;;196.30;79.80;;;;;;;-9.86;57.04;101984.06;5007781;27;97422;-73
2024/01/10 07:13:54;;;;;;;190.93;76.40;;;;;;;-9.60;56.39;102003.78;5020331;27;99143;-73
2024/01/10 07:16:20;;;;;;;204.57;75.33;;;;;;;-9.63;56.89;102006.09;5013895;27;96956;-73
2024/01/10 07:18:46;;;;;;;188.67;77.60;;;;;;;-9.72;56.91;102005.44;5012903;27;96970;-73
2024/01/10 07:21:11;;;;;;;202.20;78.27;;;;;;;-9.59;56.92;102005.59;5040264;27;98030;-73
2024/01/10 07:23:40;;;;;;;235.37;84.33;;;;;;;-9.66;57.04;102001.69;5021704;27;101238;-73
2024/01/10 07:26:06;;;;;;;220.63;87.40;;;;;;;-10.00;57.03;101970.34;5011148;27;97062;-74
2024/01/10 07:28:32;;;;;;;201.47;75.03;;;;;;;-9.87;56.50;101995.00;5020969;27;96863;-74
2024/01/10 07:30:58;;;;;;;192.93;78.47;;;;;;;-10.12;57.40;101941.47;5012083;27;97943;-76
2024/01/10 07:33:23;;;;;;;200.27;80.73;;;;;;;-9.82;56.72;101986.97;5005529;27;101327;-74
2024/01/10 07:35:49;;;;;;;191.50;77.17;;;;;;;-9.80;56.58;101934.59;5038778;27;96758;-74
2024/01/10 07:38:14;;;;;;;193.30;78.27;;;;;;;-9.56;56.96;101985.47;5041220;27;98584;-73
2024/01/10 07:40:40;;;;;;;189.70;81.93;;;;;;;-9.49;56.28;101977.50;5024184;27;97704;-74
2024/01/10 07:43:05;;;;;;;195.53;78.53;;;;;;;-9.67;56.29;101918.56;5009207;27;99041;-72
2024/01/10 07:45:31;;;;;;;185.03;79.93;;;;;;;-9.61;56.56;101941.88;5004948;27;97039;-72
2024/01/10 07:47:56;;;;;;;195.33;79.73;;;;;;;-9.26;56.39;101966.44;5027926;27;97458;-73
2024/01/10 07:50:26;;;;;;;197.03;78.93;;;;;;;-9.31;56.74;101961.78;5001805;27;97991;-72
2024/01/10 07:52:52;;;;;;;188.57;80.70;;;;;;;-9.17;57.16;101951.84;5046218;27;97610;-74
2024/01/10 07:55:17;;;;;;;202.57;82.63;;;;;;;-8.88;56.14;101975.91;5006052;27;97925;-72
2024/01/10 07:57:43;;;;;;;196.20;79.83;;;;;;;-8.72;55.54;101962.63;5024737;27;97328;-73
2024/01/10 08:00:10;;;;;;;195.57;78.83;;;;;;;-8.38;55.49;101972.56;4996960;27;100818;-74
2024/01/10 08:02:36;;;;;;;196.83;79.37;;;;;;;-8.11;54.70;101961.69;5010752;27;98084;-74
2024/01/10 08:05:08;;;;;;;187.03;79.40;;;;;;;-8.18;54.06;101984.97;5010705;28;96830;-72
2024/01/10 08:07:37;;;;;;;205.77;79.72;;;;;;;-7.88;53.83;101963.22;5010159;27;96900;-73
2024/01/10 08:10:13;;;;;;;189.53;79.73;;;;;;;-7.32;52.87;101986.44;5000874;28;100364;-72
2024/01/10 08:12:41;;;;;;;182.23;74.63;;;;;;;-7.25;53.04;101991.94;4987847;27;101416;-77
2024/01/10 08:15:07;;;;;;;188.53;81.40;;;;;;;-6.77;52.47;101998.44;5000651;28;96972;-72
2024/01/10 08:17:37;;;;;;;177.77;78.60;;;;;;;-6.52;51.37;101983.81;5012246;27;97000;-75
2024/01/10 08:20:06;;;;;;;207.13;80.13;;;;;;;-6.49;51.33;101973.78;5029123;27;97963;-76
2024/01/10 08:22:31;;;;;;;186.53;79.67;;;;;;;-6.24;50.31;101988.94;5042155;27;97525;-74
2024/01/10 08:24:57;;;;;;;194.93;83.07;;;;;;;-6.24;50.60;101975.28;4988890;27;97107;-76
2024/01/10 08:27:22;;;;;;;193.13;79.37;;;;;;;-6.33;50.20;101980.72;5014820;27;96793;-76
2024/01/10 08:29:48;;;;;;;187.80;79.13;;;;;;;-6.17;50.13;101987.63;5026167;27;101214;-76
2024/01/10 08:32:15;;;;;;;183.90;76.33;;;;;;;-5.86;50.10;101980.06;5029933;27;97649;-76
2024/01/10 08:34:40;;;;;;;191.90;81.07;;;;;;;-5.74;49.41;101983.34;5023947;27;97190;-76
2024/01/10 08:37:06;;;;;;;189.77;79.53;;;;;;;-5.72;49.29;101988.56;5017814;27;97308;-77
2024/01/10 08:39:31;;;;;;;194.13;78.53;;;;;;;-5.93;49.60;101978.00;5023184;27;100794;-76
2024/01/10 08:41:57;;;;;;;177.37;78.37;;;;;;;-5.50;49.95;101998.34;5036452;27;97412;-76
2024/01/10 08:44:23;;;;;;;186.97;80.23;;;;;;;-5.64;49.01;101977.09;5037602;27;97374;-76
2024/01/10 08:46:50;;;;;;;190.93;81.07;;;;;;;-5.59;48.99;101972.22;5019834;28;97495;-78
2024/01/10 08:49:16;;;;;;;201.50;83.17;;;;;;;-5.78;49.35;101963.50;5001218;27;99602;-77
2024/01/10 08:51:43;;;;;;;200.93;85.27;;;;;;;-5.03;49.25;102003.63;5016862;27;101109;-77
2024/01/10 08:54:09;;;;;;;188.87;81.90;;;;;;;-4.76;48.21;101998.25;5033785;27;98459;-77
2024/01/10 08:56:34;;;;;;;194.93;83.50;;;;;;;-4.68;47.36;101965.34;5052562;27;96796;-78
2024/01/10 08:59:01;;;;;;;197.67;82.63;;;;;;;-4.90;47.07;101994.94;5033342;27;97593;-77
2024/01/10 09:01:26;;;;;;;187.47;83.67;;;;;;;-4.60;47.26;101984.59;5033736;27;101122;-78
2024/01/10 09:03:52;;;;;;;188.37;81.33;;;;;;;-4.35;46.78;101958.56;5051867;27;96755;-79
2024/01/10 09:06:17;;;;;;;198.43;83.60;;;;;;;-4.42;46.10;101985.59;5020902;27;97139;-78
2024/01/10 09:08:43;;;;;;;196.63;83.43;;;;;;;-4.04;46.78;101966.19;5033056;27;97468;-77
2024/01/10 09:11:09;;;;;;;198.60;85.00;;;;;;;-4.14;46.68;101964.81;5040684;27;97985;-77
2024/01/10 09:13:34;;;;;;;192.53;82.37;;;;;;;-3.33;46.03;101944.03;5016973;27;97068;-77
2024/01/10 09:16:00;;;;;;;199.43;82.67;;;;;;;-3.22;45.50;101927.44;4998801;27;97286;-77
2024/01/10 09:18:25;;;;;;;191.87;82.23;;;;;;;-3.33;44.69;101962.88;5015273;27;98552;-78
2024/01/10 09:20:51;;;;;;;191.83;85.30;;;;;;;-3.78;44.75;101971.75;5020503;27;98655;-77
2024/01/10 09:23:16;;;;;;;192.90;84.67;;;;;;;-3.58;45.16;101967.59;5019885;27;97034;-74
2024/01/10 09:25:42;;;;;;;183.73;79.73;;;;;;;-3.46;44.88;101952.81;4991835;27;97358;-73
2024/01/10 09:28:07;;;;;;;190.27;82.33;;;;;;;-3.21;44.39;101968.59;5012326;27;100858;-74
2024/01/10 09:30:33;;;;;;;197.10;84.67;;;;;;;-3.33;45.36;101964.56;5026560;27;101631;-75
2024/01/10 09:33:00;;;;;;;197.53;86.83;;;;;;;-3.06;44.81;101960.75;5015708;27;97284;-76
2024/01/10 09:35:25;;;;;;;198.80;90.27;;;;;;;-3.30;45.86;101962.16;4989869;28;98154;-75
2024/01/10 09:37:51;;;;;;;211.73;91.17;;;;;;;-2.86;44.67;101950.53;5028251;27;98176;-76
2024/01/10 09:40:17;;;;;;;202.30;89.53;;;;;;;-2.90;45.11;101940.91;4996587;27;101737;-74
2024/01/10 09:42:48;;;;;;;205.63;90.10;;;;;;;-3.01;45.24;101912.16;5011354;27;97334;-75
2024/01/10 09:45:16;;;;;;;202.13;89.00;;;;;;;-2.84;44.85;101918.94;5017674;27;97242;-76
2024/01/10 09:47:43;;;;;;;189.63;82.00;;;;;;;-3.13;44.94;101945.84;5017748;27;97670;-76
2024/01/10 09:50:10;;;;;;;181.70;81.50;;;;;;;-3.95;45.25;101917.91;5015424;27;97868;-76
2024/01/10 09:53:07;;;;;;;208.37;87.07;;;;;;;-4.06;46.79;101951.53;4988314;27;97167;-74
2024/01/10 09:55:37;;;;;;;196.80;85.33;;;;;;;-4.23;47.59;101946.38;5000576;27;97084;-76
2024/01/10 09:58:06;;;;;;;200.10;87.43;;;;;;;-4.23;47.22;101940.38;5008834;27;98385;-78
2024/01/10 10:00:33;;;;;;;199.90;84.67;;;;;;;-4.01;47.52;101955.22;5033730;27;97933;-74
2024/01/10 10:03:00;;;;;;;201.40;85.00;;;;;;;-3.89;47.43;101918.22;5042690;27;97986;-76
2024/01/10 10:05:27;;;;;;;187.53;81.20;;;;;;;-3.62;47.00;101948.63;5015797;27;98044;-76
2024/01/10 10:07:57;;;;;;;197.63;84.17;;;;;;;-4.60;47.92;101930.75;4997442;28;101563;-77
2024/01/10 10:10:23;;;;;;;195.30;86.67;;;;;;;-4.99;49.00;101934.63;5012358;27;101266;-76
2024/01/10 10:12:52;;;;;;;206.27;87.00;;;;;;;-5.34;50.00;101941.25;4993425;27;97396;-78
2024/01/10 10:15:21;;;;;;;191.83;83.87;;;;;;;-5.27;50.28;101915.19;5020384;27;97015;-78
2024/01/10 10:17:48;;;;;;;183.63;82.67;;;;;;;-5.01;50.28;101937.09;5008771;27;98067;-79
2024/01/10 10:20:20;;;;;;;186.13;79.00;;;;;;;-4.62;49.61;101932.38;5022849;27;97474;-77
2024/01/10 10:23:02;;;;;;;190.55;82.47;;;;;;;-4.26;49.63;101938.53;5030512;27;97217;-77
2024/01/10 10:25:44;;;;;;;186.95;83.03;;;;;;;-4.06;48.73;101915.59;5010768;28;97260;-77
2024/01/10 10:28:10;;;;;;;177.05;80.88;;;;;;;-3.89;48.45;101940.44;5022161;27;97714;-78
2024/01/10 10:30:35;;;;;;;182.83;81.40;;;;;;;-4.01;48.48;101917.59;5024844;27;97903;-79
2024/01/10 10:33:05;;;;;;;188.87;81.87;;;;;;;-4.56;49.30;101886.56;5050704;27;97939;-78
2024/01/10 10:35:32;;;;;;;181.97;77.50;;;;;;;-3.99;49.43;101918.53;5018215;27;97526;-77
2024/01/10 10:37:58;;;;;;;187.47;86.57;;;;;;;-3.95;48.76;101929.84;5009846;27;98167;-79
2024/01/10 10:40:24;;;;;;;191.20;80.33;;;;;;;-3.98;47.79;101914.31;4995281;28;100231;-79
2024/01/10 10:42:54;;;;;;;184.83;81.20;;;;;;;-3.70;48.28;101934.50;5006938;27;97578;-77
2024/01/10 10:45:25;;;;;;;185.27;79.07;;;;;;;-3.64;48.26;101901.44;5042487;27;96782;-77
2024/01/10 10:47:57;;;;;;;190.77;82.47;;;;;;;-3.40;47.44;101940.28;5028605;27;101210;-77
2024/01/10 10:50:23;;;;;;;190.50;82.25;;;;;;;-3.70;48.06;101940.53;5010225;27;101288;-78
2024/01/10 10:52:50;;;;;;;189.17;81.03;;;;;;;-3.82;48.59;101926.22;5013115;27;97043;-77
2024/01/10 10:55:16;;;;;;;184.67;80.13;;;;;;;-3.84;48.70;101913.28;5012171;27;97058;-77